Aérodrome :







RETROUVEZ-NOUS SUR...

 
LOGIN :

S'inscrire | Disclaimer

   EN    FR    IT 

 









Légende :    VFR   VFR Marginal   IFR   IFR Intensif   IFR Très Intensif
Visi : 
Plafond : 
>= 8 km
>= 3000ft
5 à 8 km
1000 à 3000 ft
1500m à 5 km
500 à 1000 ft
800 à 1500m
200 à 500 ft
< 800m
< 200 ft
Symboles :   Orages  Brouillard  Fortes neiges  Fortes précipitations  Vent > 20 kt






- Altitude de l'aérodrome : 234 ft
- Code IATA : PBG


KPBG - Plattsburgh International

DERNIER METAR :
  • 171453Z AUTO VRB05KT 10SM CLR M16/M22 A3076 RMK AO2 SLP422 T11611217 51025

METARs EXPIRÉS :
  • 171353Z AUTO 31004KT 10SM CLR M17/M22 A3074 RMK AO2 SLP416 T11671217
  • 171253Z AUTO 34010KT 10SM CLR M18/M23 A3072 RMK AO2 SLP407 T11831233

TAF KPBG
Valide du 17 à 12h jusqu'au 18 à 12h UTC


171138Z 1712/1812 33014KT P6SM SCT020
FM180200 VRB04KT P6SM SKC



MET'MAP, la Météo Aéronautique d'un coup d'oeil ! - Copyright ORBIFLY Décembre 2007 - Disclaimer

ORBIFLY MET'MAP TEAM :

Programmation & Développement : Alexandra Zaïnal
Sur une idée originale de : Baudouin d'Aumeries
Assistance à la programmation : Marc-Olivier Méhu
Soutien technique & logistique : Manuel Goepfert

Contact : metmap@orbifly.com




SOURCES & CREDITS :

   NOAA